The World — C6RW4 — position and weather

sailwx.info

Track history (hours):
 
Tides and Currents Weather Stations Pressure Air Temp Water Temp Dewpoint Dewpoint Depression Visibility Wind Speed Wind Dir Waves Ship Positions

The World

Operator: Bergshav-Norway

Last reported at 2018-May-19 00:13 UTC. Time now 2018-May-20 21:28 UTC.
Position N 41°31' E 009°59'.

Length 196 m; draft 7 m.

Type: Passenger vessel. MMSI: 311213000.

Date/timePositionNaut miles runAvg speedWind from/ knotsBaromVisibWave heightAir tempDewpointWater temp
2018-May-19 00:13N 41°31' E 009°59'2 6.6
2018-May-18 23:56N 41°32' E 010°01'3 6.6
2018-May-18 23:28N 41°33' E 010°05'4 5.9
2018-May-18 22:43N 41°36' E 010°09'1 6.7
2018-May-18 22:30N 41°37' E 010°08'3 6.8
2018-May-18 22:00N 41°40' E 010°05'3 6.7
2018-May-18 21:30N 41°43' E 010°03'  
2018-May-15 00:59N 42°05' E 010°16'4312.0
2018-May-14 21:23N 42°29' E 011°05'3 7.7
2018-May-14 21:00N 42°27' E 011°08'0 0.2
2018-May-14 20:30N 42°27' E 011°08'0 0.0
2018-May-14 20:00N 42°27' E 011°08'0 0.1
2018-May-14 19:27N 42°27' E 011°08'0 0.1
2018-May-14 19:00N 42°27' E 011°08'0 0.0
2018-May-14 18:30N 42°27' E 011°08'0 0.0
2018-May-14 18:00N 42°27' E 011°08'0 0.0
2018-May-14 17:30N 42°27' E 011°08'0 0.0
2018-May-14 17:00N 42°27' E 011°08'0 0.0
2018-May-14 16:30N 42°27' E 011°08'0 0.0
2018-May-14 16:00N 42°27' E 011°08'0 0.1
2018-May-14 15:24N 42°27' E 011°08'0 0.1
2018-May-14 15:00N 42°27' E 011°08'0 0.1
2018-May-14 14:30N 42°27' E 011°08'0 0.0
2018-May-14 14:00N 42°27' E 011°08'0 0.1
2018-May-14 13:30N 42°27' E 011°08'0 0.1
2018-May-14 13:00N 42°27' E 011°08'0 0.0
2018-May-14 12:30N 42°27' E 011°08'0 0.0
2018-May-14 11:48N 42°27' E 011°08'0 0.1
2018-May-14 11:30N 42°27' E 011°08'0 0.1
2018-May-14 11:00N 42°27' E 011°08'0 0.1
2018-May-14 10:30N 42°27' E 011°08'0 0.0
2018-May-14 09:54N 42°27' E 011°08'0 0.1
2018-May-14 09:30N 42°27' E 011°08'0 0.1
2018-May-14 09:00N 42°27' E 011°08'0 0.0
2018-May-14 08:27N 42°27' E 011°08'0 0.0
2018-May-14 07:54N 42°27' E 011°08'0 0.0
2018-May-14 07:30N 42°27' E 011°08'0 0.0
2018-May-14 07:00N 42°27' E 011°08'0 0.1
2018-May-14 06:30N 42°27' E 011°08'3 5.6
2018-May-14 06:00N 42°29' E 011°06'39 2.1
2018-May-13 11:10N 42°49' E 010°20'0 0.0
2018-May-13 10:58N 42°49' E 010°20'0 0.0
2018-May-13 10:28N 42°49' E 010°20'0 0.0
2018-May-13 09:58N 42°49' E 010°20'0 0.0
2018-May-13 08:49N 42°49' E 010°20'0 0.0
2018-May-13 08:28N 42°49' E 010°20'0 0.0
2018-May-13 07:58N 42°49' E 010°20'0 0.0
2018-May-13 07:28N 42°49' E 010°20'0 0.0
2018-May-13 06:58N 42°49' E 010°20'0 0.0
2018-May-13 06:28N 42°49' E 010°20'0 0.0
2018-May-13 05:55N 42°49' E 010°20'0 0.0
2018-May-13 05:28N 42°49' E 010°20'0 0.0
2018-May-13 04:58N 42°49' E 010°20'0 0.0
2018-May-13 04:28N 42°49' E 010°20'0 0.0
2018-May-13 03:58N 42°49' E 010°20'0 0.0
2018-May-13 03:28N 42°49' E 010°20'0 0.0
2018-May-13 01:16N 42°49' E 010°20'0 0.0
2018-May-13 00:04N 42°49' E 010°20'0 0.0
2018-May-12 23:46N 42°49' E 010°20'0 0.0
2018-May-12 23:19N 42°49' E 010°20'0 0.0
2018-May-12 22:49N 42°49' E 010°20'0 0.0
2018-May-12 22:25N 42°49' E 010°20'0 0.0
2018-May-12 21:55N 42°49' E 010°20'0 0.0
2018-May-12 20:43N 42°49' E 010°20'0 0.0
2018-May-12 20:16N 42°49' E 010°20'0 0.0
2018-May-12 19:55N 42°49' E 010°20'0 0.0
2018-May-12 18:46N 42°49' E 010°20'0 0.0
2018-May-12 18:28N 42°49' E 010°20'0 0.0
2018-May-11 21:34N 42°49' E 010°20'0 0.0
2018-May-11 21:25N 42°49' E 010°20'0 0.0
2018-May-11 20:58N 42°49' E 010°20'0 0.0
2018-May-11 14:07N 42°49' E 010°20'0 0.0
2018-May-11 13:55N 42°49' E 010°20'0 0.0
2018-May-11 13:25N 42°49' E 010°20'0 0.0
2018-May-11 12:55N 42°49' E 010°20'0 0.0
2018-May-11 11:37N 42°49' E 010°20'0 0.0
2018-May-11 11:28N 42°49' E 010°20'1 0.1
2018-May-11 06:13N 42°49' E 010°21'6 8.1
2018-May-11 05:29N 42°54' E 010°22'4 9.1
2018-May-11 05:00N 42°55' E 010°28'5 7.9
2018-May-11 04:25N 42°56' E 010°34'1 0.1
2018-May-10 22:33N 42°56' E 010°33'0 0.1
2018-May-10 22:30N 42°56' E 010°33'0 0.0
2018-May-10 20:12N 42°56' E 010°33'0 0.0
2018-May-10 19:45N 42°56' E 010°33'0 0.0
2018-May-10 19:18N 42°56' E 010°33'0 0.0
2018-May-10 17:42N 42°56' E 010°33'0 0.0
2018-May-10 17:30N 42°56' E 010°33'0 0.0
2018-May-10 16:15N 42°56' E 010°33'0 0.0
2018-May-10 16:00N 42°56' E 010°33'0 0.0
2018-May-10 15:30N 42°56' E 010°33'0 0.0
2018-May-10 13:30N 42°56' E 010°33'0 0.0
2018-May-10 11:12N 42°56' E 010°33'0 0.0
2018-May-10 10:51N 42°56' E 010°33'14 1.7
2018-May-10 02:47N 42°59' E 010°15'2 7.6
2018-May-10 02:30N 42°60' E 010°13'4 7.7
2018-May-10 02:00N 43°03' E 010°09'4 8.2
2018-May-10 01:30N 43°07' E 010°09'4 7.3
2018-May-10 01:00N 43°11' E 010°09'4 7.1
2018-May-10 00:30N 43°14' E 010°09'4 7.9
2018-May-10 00:00N 43°18' E 010°09'510.0
2018-May-09 23:30N 43°23' E 010°10'5 9.5
2018-May-09 23:00N 43°28' E 010°10'4 7.5
2018-May-09 22:30N 43°31' E 010°13'4 7.3
2018-May-09 22:00N 43°33' E 010°17'0 0.4
2018-May-09 21:30N 43°33' E 010°18'0 0.0
2018-May-09 21:00N 43°33' E 010°18'0 0.0
2018-May-09 20:30N 43°33' E 010°18'0 0.0
2018-May-09 19:54N 43°33' E 010°18'0 0.0
2018-May-09 19:30N 43°33' E 010°18'0 0.0
2018-May-09 19:00N 43°33' E 010°18'0 0.0
2018-May-09 18:30N 43°33' E 010°18'0 0.0
2018-May-09 18:00N 43°33' E 010°18'0 0.0
2018-May-09 17:30N 43°33' E 010°18'0 0.0
2018-May-09 17:00N 43°33' E 010°18'0 0.0
2018-May-09 16:30N 43°33' E 010°18'0 0.0
2018-May-09 16:00N 43°33' E 010°18'0 0.0
2018-May-09 15:30N 43°33' E 010°18'0 0.0
2018-May-09 15:00N 43°33' E 010°18'0 0.0
2018-May-09 14:30N 43°33' E 010°18'0 0.0
2018-May-09 14:00N 43°33' E 010°18'0 0.0
2018-May-09 13:30N 43°33' E 010°18'0 0.0
2018-May-09 13:00N 43°33' E 010°18'0 0.0
2018-May-09 12:30N 43°33' E 010°18'0 0.0
2018-May-09 12:00N 43°33' E 010°18'0 0.0
2018-May-09 11:30N 43°33' E 010°18'0 0.0
2018-May-09 11:00N 43°33' E 010°18'0 0.0
2018-May-09 10:30N 43°33' E 010°18'0 0.0
2018-May-09 10:00N 43°33' E 010°18'0 0.0
2018-May-09 09:30N 43°33' E 010°18'0 0.0
2018-May-09 09:00N 43°33' E 010°18'0 0.0
2018-May-09 08:30N 43°33' E 010°18'0 0.0
2018-May-09 08:00N 43°33' E 010°18'0 0.0
2018-May-09 07:30N 43°33' E 010°18'0 0.0
2018-May-09 07:00N 43°33' E 010°18'0 0.0
2018-May-09 06:30N 43°33' E 010°18'0 0.0
2018-May-09 06:00N 43°33' E 010°18'0 0.0
2018-May-09 05:30N 43°33' E 010°18'0 0.0
2018-May-09 05:00N 43°33' E 010°18'0 0.0
2018-May-09 04:30N 43°33' E 010°18'0 0.0
2018-May-09 04:00N 43°33' E 010°18'0 0.0
2018-May-09 03:30N 43°33' E 010°18'0 0.0
2018-May-09 03:00N 43°33' E 010°18'0 0.0
2018-May-09 02:30N 43°33' E 010°18'0 0.0
2018-May-09 02:00N 43°33' E 010°18'0 0.0
2018-May-09 01:30N 43°33' E 010°18'0 0.0
2018-May-09 01:00N 43°33' E 010°18'0 0.0
2018-May-09 00:30N 43°33' E 010°18'  
Track history (hours):
 
Tides and Currents Weather Stations Pressure Air Temp Water Temp Dewpoint Dewpoint Depression Visibility Wind Speed Wind Dir Waves Ship Positions

The World

Operator: Bergshav-Norway

Last reported at 2018-May-19 00:13 UTC. Time now 2018-May-20 21:28 UTC.
Position N 41°31' E 009°59'.

Length 196 m; draft 7 m.

Type: Passenger vessel. MMSI: 311213000.

Date/timePositionNaut miles runAvg speedWind from/ knotsBaromVisibWave heightAir tempDewpointWater temp
2018-May-19 00:13N 41°31' E 009°59'2 6.6
2018-May-18 23:56N 41°32' E 010°01'3 6.6
2018-May-18 23:28N 41°33' E 010°05'4 5.9
2018-May-18 22:43N 41°36' E 010°09'1 6.7
2018-May-18 22:30N 41°37' E 010°08'3 6.8
2018-May-18 22:00N 41°40' E 010°05'3 6.7
2018-May-18 21:30N 41°43' E 010°03'  
2018-May-15 00:59N 42°05' E 010°16'4312.0
2018-May-14 21:23N 42°29' E 011°05'3 7.7
2018-May-14 21:00N 42°27' E 011°08'0 0.2
2018-May-14 20:30N 42°27' E 011°08'0 0.0
2018-May-14 20:00N 42°27' E 011°08'0 0.1
2018-May-14 19:27N 42°27' E 011°08'0 0.1
2018-May-14 19:00N 42°27' E 011°08'0 0.0
2018-May-14 18:30N 42°27' E 011°08'0 0.0
2018-May-14 18:00N 42°27' E 011°08'0 0.0
2018-May-14 17:30N 42°27' E 011°08'0 0.0
2018-May-14 17:00N 42°27' E 011°08'0 0.0
2018-May-14 16:30N 42°27' E 011°08'0 0.0
2018-May-14 16:00N 42°27' E 011°08'0 0.1
2018-May-14 15:24N 42°27' E 011°08'0 0.1
2018-May-14 15:00N 42°27' E 011°08'0 0.1
2018-May-14 14:30N 42°27' E 011°08'0 0.0
2018-May-14 14:00N 42°27' E 011°08'0 0.1
2018-May-14 13:30N 42°27' E 011°08'0 0.1
2018-May-14 13:00N 42°27' E 011°08'0 0.0
2018-May-14 12:30N 42°27' E 011°08'0 0.0
2018-May-14 11:48N 42°27' E 011°08'0 0.1
2018-May-14 11:30N 42°27' E 011°08'0 0.1
2018-May-14 11:00N 42°27' E 011°08'0 0.1
2018-May-14 10:30N 42°27' E 011°08'0 0.0
2018-May-14 09:54N 42°27' E 011°08'0 0.1
2018-May-14 09:30N 42°27' E 011°08'0 0.1
2018-May-14 09:00N 42°27' E 011°08'0 0.0
2018-May-14 08:27N 42°27' E 011°08'0 0.0
2018-May-14 07:54N 42°27' E 011°08'0 0.0
2018-May-14 07:30N 42°27' E 011°08'0 0.0
2018-May-14 07:00N 42°27' E 011°08'0 0.1
2018-May-14 06:30N 42°27' E 011°08'3 5.6
2018-May-14 06:00N 42°29' E 011°06'39 2.1
2018-May-13 11:10N 42°49' E 010°20'0 0.0
2018-May-13 10:58N 42°49' E 010°20'0 0.0
2018-May-13 10:28N 42°49' E 010°20'0 0.0
2018-May-13 09:58N 42°49' E 010°20'0 0.0
2018-May-13 08:49N 42°49' E 010°20'0 0.0
2018-May-13 08:28N 42°49' E 010°20'0 0.0
2018-May-13 07:58N 42°49' E 010°20'0 0.0
2018-May-13 07:28N 42°49' E 010°20'0 0.0
2018-May-13 06:58N 42°49' E 010°20'0 0.0
2018-May-13 06:28N 42°49' E 010°20'0 0.0
2018-May-13 05:55N 42°49' E 010°20'0 0.0
2018-May-13 05:28N 42°49' E 010°20'0 0.0
2018-May-13 04:58N 42°49' E 010°20'0 0.0
2018-May-13 04:28N 42°49' E 010°20'0 0.0
2018-May-13 03:58N 42°49' E 010°20'0 0.0
2018-May-13 03:28N 42°49' E 010°20'0 0.0
2018-May-13 01:16N 42°49' E 010°20'0 0.0
2018-May-13 00:04N 42°49' E 010°20'0 0.0
2018-May-12 23:46N 42°49' E 010°20'0 0.0
2018-May-12 23:19N 42°49' E 010°20'0 0.0
2018-May-12 22:49N 42°49' E 010°20'0 0.0
2018-May-12 22:25N 42°49' E 010°20'0 0.0
2018-May-12 21:55N 42°49' E 010°20'0 0.0
2018-May-12 20:43N 42°49' E 010°20'0 0.0
2018-May-12 20:16N 42°49' E 010°20'0 0.0
2018-May-12 19:55N 42°49' E 010°20'0 0.0
2018-May-12 18:46N 42°49' E 010°20'0 0.0
2018-May-12 18:28N 42°49' E 010°20'0 0.0
2018-May-11 21:34N 42°49' E 010°20'0 0.0
2018-May-11 21:25N 42°49' E 010°20'0 0.0
2018-May-11 20:58N 42°49' E 010°20'0 0.0
2018-May-11 14:07N 42°49' E 010°20'0 0.0
2018-May-11 13:55N 42°49' E 010°20'0 0.0
2018-May-11 13:25N 42°49' E 010°20'0 0.0
2018-May-11 12:55N 42°49' E 010°20'0 0.0
2018-May-11 11:37N 42°49' E 010°20'0 0.0
2018-May-11 11:28N 42°49' E 010°20'1 0.1
2018-May-11 06:13N 42°49' E 010°21'6 8.1
2018-May-11 05:29N 42°54' E 010°22'4 9.1
2018-May-11 05:00N 42°55' E 010°28'5 7.9
2018-May-11 04:25N 42°56' E 010°34'1 0.1
2018-May-10 22:33N 42°56' E 010°33'0 0.1
2018-May-10 22:30N 42°56' E 010°33'0 0.0
2018-May-10 20:12N 42°56' E 010°33'0 0.0
2018-May-10 19:45N 42°56' E 010°33'0 0.0
2018-May-10 19:18N 42°56' E 010°33'0 0.0
2018-May-10 17:42N 42°56' E 010°33'0 0.0
2018-May-10 17:30N 42°56' E 010°33'0 0.0
2018-May-10 16:15N 42°56' E 010°33'0 0.0
2018-May-10 16:00N 42°56' E 010°33'0 0.0
2018-May-10 15:30N 42°56' E 010°33'0 0.0
2018-May-10 13:30N 42°56' E 010°33'0 0.0
2018-May-10 11:12N 42°56' E 010°33'0 0.0
2018-May-10 10:51N 42°56' E 010°33'14 1.7
2018-May-10 02:47N 42°59' E 010°15'2 7.6
2018-May-10 02:30N 42°60' E 010°13'4 7.7
2018-May-10 02:00N 43°03' E 010°09'4 8.2
2018-May-10 01:30N 43°07' E 010°09'4 7.3
2018-May-10 01:00N 43°11' E 010°09'4 7.1
2018-May-10 00:30N 43°14' E 010°09'4 7.9
2018-May-10 00:00N 43°18' E 010°09'510.0
2018-May-09 23:30N 43°23' E 010°10'5 9.5
2018-May-09 23:00N 43°28' E 010°10'4 7.5
2018-May-09 22:30N 43°31' E 010°13'4 7.3
2018-May-09 22:00N 43°33' E 010°17'0 0.4
2018-May-09 21:30N 43°33' E 010°18'0 0.0
2018-May-09 21:00N 43°33' E 010°18'0 0.0
2018-May-09 20:30N 43°33' E 010°18'0 0.0
2018-May-09 19:54N 43°33' E 010°18'0 0.0
2018-May-09 19:30N 43°33' E 010°18'0 0.0
2018-May-09 19:00N 43°33' E 010°18'0 0.0
2018-May-09 18:30N 43°33' E 010°18'0 0.0
2018-May-09 18:00N 43°33' E 010°18'0 0.0
2018-May-09 17:30N 43°33' E 010°18'0 0.0
2018-May-09 17:00N 43°33' E 010°18'0 0.0
2018-May-09 16:30N 43°33' E 010°18'0 0.0
2018-May-09 16:00N 43°33' E 010°18'0 0.0
2018-May-09 15:30N 43°33' E 010°18'0 0.0
2018-May-09 15:00N 43°33' E 010°18'0 0.0
2018-May-09 14:30N 43°33' E 010°18'0 0.0
2018-May-09 14:00N 43°33' E 010°18'0 0.0
2018-May-09 13:30N 43°33' E 010°18'0 0.0
2018-May-09 13:00N 43°33' E 010°18'0 0.0
2018-May-09 12:30N 43°33' E 010°18'0 0.0
2018-May-09 12:00N 43°33' E 010°18'0 0.0
2018-May-09 11:30N 43°33' E 010°18'0 0.0
2018-May-09 11:00N 43°33' E 010°18'0 0.0
2018-May-09 10:30N 43°33' E 010°18'0 0.0
2018-May-09 10:00N 43°33' E 010°18'0 0.0
2018-May-09 09:30N 43°33' E 010°18'0 0.0
2018-May-09 09:00N 43°33' E 010°18'0 0.0
2018-May-09 08:30N 43°33' E 010°18'0 0.0
2018-May-09 08:00N 43°33' E 010°18'0 0.0
2018-May-09 07:30N 43°33' E 010°18'0 0.0
2018-May-09 07:00N 43°33' E 010°18'0 0.0
2018-May-09 06:30N 43°33' E 010°18'0 0.0
2018-May-09 06:00N 43°33' E 010°18'0 0.0
2018-May-09 05:30N 43°33' E 010°18'0 0.0
2018-May-09 05:00N 43°33' E 010°18'0 0.0
2018-May-09 04:30N 43°33' E 010°18'0 0.0
2018-May-09 04:00N 43°33' E 010°18'0 0.0
2018-May-09 03:30N 43°33' E 010°18'0 0.0
2018-May-09 03:00N 43°33' E 010°18'0 0.0
2018-May-09 02:30N 43°33' E 010°18'0 0.0
2018-May-09 02:00N 43°33' E 010°18'0 0.0
2018-May-09 01:30N 43°33' E 010°18'0 0.0
2018-May-09 01:00N 43°33' E 010°18'0 0.0
2018-May-09 00:30N 43°33' E 010°18'  

Dump ship's entire track history